sensor_id;sensor_type;location;lat;lon;timestamp;P1;durP1;ratioP1;P2;durP2;ratioP2
37873;SDS011;23709;48.078;11.684;2023-04-27T00:01:16;9.90;;;6.88;;
37873;SDS011;23709;48.078;11.684;2023-04-27T00:03:48;15.95;;;7.15;;
37873;SDS011;23709;48.078;11.684;2023-04-27T00:06:21;13.88;;;8.27;;
37873;SDS011;23709;48.078;11.684;2023-04-27T00:08:54;13.07;;;8.05;;
37873;SDS011;23709;48.078;11.684;2023-04-27T00:11:27;15.98;;;8.23;;
37873;SDS011;23709;48.078;11.684;2023-04-27T00:13:59;15.18;;;7.43;;
37873;SDS011;23709;48.078;11.684;2023-04-27T00:16:31;14.40;;;7.35;;
37873;SDS011;23709;48.078;11.684;2023-04-27T00:19:04;10.85;;;7.05;;
37873;SDS011;23709;48.078;11.684;2023-04-27T00:21:36;14.13;;;7.03;;
37873;SDS011;23709;48.078;11.684;2023-04-27T00:24:08;10.27;;;7.07;;
37873;SDS011;23709;48.078;11.684;2023-04-27T00:26:40;17.92;;;7.18;;
37873;SDS011;23709;48.078;11.684;2023-04-27T00:29:12;12.45;;;7.50;;
37873;SDS011;23709;48.078;11.684;2023-04-27T00:31:45;13.85;;;7.10;;
37873;SDS011;23709;48.078;11.684;2023-04-27T00:34:18;12.38;;;7.18;;
37873;SDS011;23709;48.078;11.684;2023-04-27T00:36:51;13.77;;;6.68;;
37873;SDS011;23709;48.078;11.684;2023-04-27T00:39:24;15.70;;;7.15;;
37873;SDS011;23709;48.078;11.684;2023-04-27T00:41:56;16.67;;;7.88;;
37873;SDS011;23709;48.078;11.684;2023-04-27T00:44:30;13.55;;;7.57;;
37873;SDS011;23709;48.078;11.684;2023-04-27T00:47:03;13.32;;;8.10;;
37873;SDS011;23709;48.078;11.684;2023-04-27T00:49:36;12.13;;;8.25;;
37873;SDS011;23709;48.078;11.684;2023-04-27T00:52:08;12.88;;;7.63;;
37873;SDS011;23709;48.078;11.684;2023-04-27T00:54:41;11.90;;;7.30;;
37873;SDS011;23709;48.078;11.684;2023-04-27T00:57:13;12.32;;;7.78;;
37873;SDS011;23709;48.078;11.684;2023-04-27T00:59:48;10.85;;;6.80;;
37873;SDS011;23709;48.078;11.684;2023-04-27T01:02:20;12.90;;;7.60;;
37873;SDS011;23709;48.078;11.684;2023-04-27T01:04:53;16.02;;;7.50;;
37873;SDS011;23709;48.078;11.684;2023-04-27T01:07:26;11.10;;;7.78;;
37873;SDS011;23709;48.078;11.684;2023-04-27T01:09:58;13.68;;;6.72;;
37873;SDS011;23709;48.078;11.684;2023-04-27T01:12:31;12.77;;;7.35;;
37873;SDS011;23709;48.078;11.684;2023-04-27T01:15:04;18.25;;;7.53;;
37873;SDS011;23709;48.078;11.684;2023-04-27T01:17:37;11.40;;;7.68;;
37873;SDS011;23709;48.078;11.684;2023-04-27T01:20:10;11.93;;;7.63;;
37873;SDS011;23709;48.078;11.684;2023-04-27T01:22:43;15.90;;;7.95;;
37873;SDS011;23709;48.078;11.684;2023-04-27T01:25:15;13.90;;;8.00;;
37873;SDS011;23709;48.078;11.684;2023-04-27T01:27:47;12.77;;;8.07;;
37873;SDS011;23709;48.078;11.684;2023-04-27T01:30:20;13.85;;;8.35;;
37873;SDS011;23709;48.078;11.684;2023-04-27T01:32:53;15.52;;;8.38;;
37873;SDS011;23709;48.078;11.684;2023-04-27T01:35:25;11.38;;;6.88;;
37873;SDS011;23709;48.078;11.684;2023-04-27T01:38:03;15.65;;;7.60;;
37873;SDS011;23709;48.078;11.684;2023-04-27T01:40:36;15.02;;;8.02;;
37873;SDS011;23709;48.078;11.684;2023-04-27T01:43:08;11.52;;;7.47;;
37873;SDS011;23709;48.078;11.684;2023-04-27T01:45:40;12.02;;;7.18;;
37873;SDS011;23709;48.078;11.684;2023-04-27T01:48:12;15.25;;;8.18;;
37873;SDS011;23709;48.078;11.684;2023-04-27T01:50:47;11.95;;;8.32;;
37873;SDS011;23709;48.078;11.684;2023-04-27T01:53:19;12.98;;;7.95;;
37873;SDS011;23709;48.078;11.684;2023-04-27T01:55:52;12.00;;;8.15;;
37873;SDS011;23709;48.078;11.684;2023-04-27T01:58:25;11.87;;;7.63;;
37873;SDS011;23709;48.078;11.684;2023-04-27T02:00:57;11.93;;;6.75;;
37873;SDS011;23709;48.078;11.684;2023-04-27T02:03:30;14.95;;;7.47;;
37873;SDS011;23709;48.078;11.684;2023-04-27T02:06:03;13.80;;;7.10;;
37873;SDS011;23709;48.078;11.684;2023-04-27T02:08:35;10.93;;;6.68;;
37873;SDS011;23709;48.078;11.684;2023-04-27T02:11:12;10.95;;;6.93;;
37873;SDS011;23709;48.078;11.684;2023-04-27T02:13:44;14.85;;;7.25;;
37873;SDS011;23709;48.078;11.684;2023-04-27T02:16:17;14.35;;;8.20;;
37873;SDS011;23709;48.078;11.684;2023-04-27T02:18:49;10.45;;;7.60;;
37873;SDS011;23709;48.078;11.684;2023-04-27T02:21:25;14.80;;;7.60;;
37873;SDS011;23709;48.078;11.684;2023-04-27T02:23:59;12.63;;;8.15;;
37873;SDS011;23709;48.078;11.684;2023-04-27T02:26:32;14.65;;;7.90;;
37873;SDS011;23709;48.078;11.684;2023-04-27T02:29:06;9.63;;;7.13;;
37873;SDS011;23709;48.078;11.684;2023-04-27T02:31:39;10.82;;;6.97;;
37873;SDS011;23709;48.078;11.684;2023-04-27T02:34:12;17.27;;;8.05;;
37873;SDS011;23709;48.078;11.684;2023-04-27T02:36:44;18.90;;;8.43;;
37873;SDS011;23709;48.078;11.684;2023-04-27T02:39:16;9.93;;;7.35;;
37873;SDS011;23709;48.078;11.684;2023-04-27T02:41:49;12.97;;;8.10;;
37873;SDS011;23709;48.078;11.684;2023-04-27T02:44:21;12.65;;;8.15;;
37873;SDS011;23709;48.078;11.684;2023-04-27T02:46:54;12.30;;;6.97;;
37873;SDS011;23709;48.078;11.684;2023-04-27T02:49:27;16.50;;;8.35;;
37873;SDS011;23709;48.078;11.684;2023-04-27T02:51:59;14.13;;;7.88;;
37873;SDS011;23709;48.078;11.684;2023-04-27T02:54:31;13.93;;;8.32;;
37873;SDS011;23709;48.078;11.684;2023-04-27T02:57:05;12.05;;;7.25;;
37873;SDS011;23709;48.078;11.684;2023-04-27T02:59:37;11.90;;;7.57;;
37873;SDS011;23709;48.078;11.684;2023-04-27T03:02:09;20.13;;;8.38;;
37873;SDS011;23709;48.078;11.684;2023-04-27T03:04:41;19.60;;;7.93;;
37873;SDS011;23709;48.078;11.684;2023-04-27T03:07:14;14.53;;;8.30;;
37873;SDS011;23709;48.078;11.684;2023-04-27T03:09:46;13.43;;;7.47;;
37873;SDS011;23709;48.078;11.684;2023-04-27T03:12:18;14.15;;;7.38;;
37873;SDS011;23709;48.078;11.684;2023-04-27T03:14:51;17.15;;;7.57;;
37873;SDS011;23709;48.078;11.684;2023-04-27T03:17:23;14.73;;;7.50;;
37873;SDS011;23709;48.078;11.684;2023-04-27T03:19:55;12.65;;;7.13;;
37873;SDS011;23709;48.078;11.684;2023-04-27T03:22:28;10.50;;;6.82;;
37873;SDS011;23709;48.078;11.684;2023-04-27T03:25:00;12.57;;;7.68;;
37873;SDS011;23709;48.078;11.684;2023-04-27T03:27:32;12.82;;;7.75;;
37873;SDS011;23709;48.078;11.684;2023-04-27T03:30:05;12.23;;;7.10;;
37873;SDS011;23709;48.078;11.684;2023-04-27T03:32:37;10.02;;;7.50;;
37873;SDS011;23709;48.078;11.684;2023-04-27T03:35:11;11.10;;;7.20;;
37873;SDS011;23709;48.078;11.684;2023-04-27T03:37:43;12.23;;;7.57;;
37873;SDS011;23709;48.078;11.684;2023-04-27T03:42:49;10.75;;;7.25;;
37873;SDS011;23709;48.078;11.684;2023-04-27T03:45:21;12.15;;;7.22;;
37873;SDS011;23709;48.078;11.684;2023-04-27T03:47:55;13.25;;;7.07;;
37873;SDS011;23709;48.078;11.684;2023-04-27T03:50:28;13.43;;;7.70;;
37873;SDS011;23709;48.078;11.684;2023-04-27T03:53:01;13.57;;;7.78;;
37873;SDS011;23709;48.078;11.684;2023-04-27T03:55:36;10.77;;;6.87;;
37873;SDS011;23709;48.078;11.684;2023-04-27T03:58:10;13.18;;;7.82;;
37873;SDS011;23709;48.078;11.684;2023-04-27T04:00:55;12.27;;;7.85;;
37873;SDS011;23709;48.078;11.684;2023-04-27T04:03:28;13.73;;;8.10;;
37873;SDS011;23709;48.078;11.684;2023-04-27T04:06:00;13.57;;;7.70;;
37873;SDS011;23709;48.078;11.684;2023-04-27T04:08:34;12.13;;;8.25;;
37873;SDS011;23709;48.078;11.684;2023-04-27T04:11:06;11.95;;;7.88;;
37873;SDS011;23709;48.078;11.684;2023-04-27T04:13:40;15.32;;;7.50;;
37873;SDS011;23709;48.078;11.684;2023-04-27T04:16:13;15.73;;;8.30;;
37873;SDS011;23709;48.078;11.684;2023-04-27T04:18:45;16.83;;;9.00;;
37873;SDS011;23709;48.078;11.684;2023-04-27T04:21:19;18.73;;;8.85;;
37873;SDS011;23709;48.078;11.684;2023-04-27T04:23:51;14.05;;;8.20;;
37873;SDS011;23709;48.078;11.684;2023-04-27T04:26:24;13.48;;;7.78;;
37873;SDS011;23709;48.078;11.684;2023-04-27T04:28:57;15.95;;;7.40;;
37873;SDS011;23709;48.078;11.684;2023-04-27T04:31:30;15.50;;;8.57;;
37873;SDS011;23709;48.078;11.684;2023-04-27T04:34:04;13.60;;;8.20;;
37873;SDS011;23709;48.078;11.684;2023-04-27T04:36:36;14.43;;;9.10;;
37873;SDS011;23709;48.078;11.684;2023-04-27T04:39:08;22.20;;;9.90;;
37873;SDS011;23709;48.078;11.684;2023-04-27T04:41:43;15.60;;;9.77;;
37873;SDS011;23709;48.078;11.684;2023-04-27T04:44:17;12.73;;;9.10;;
37873;SDS011;23709;48.078;11.684;2023-04-27T04:46:51;14.93;;;9.13;;
37873;SDS011;23709;48.078;11.684;2023-04-27T04:49:24;15.50;;;9.40;;
37873;SDS011;23709;48.078;11.684;2023-04-27T04:51:56;19.92;;;9.88;;
37873;SDS011;23709;48.078;11.684;2023-04-27T04:54:30;18.25;;;10.15;;
37873;SDS011;23709;48.078;11.684;2023-04-27T04:57:04;18.23;;;8.43;;
37873;SDS011;23709;48.078;11.684;2023-04-27T04:59:36;18.13;;;9.00;;
37873;SDS011;23709;48.078;11.684;2023-04-27T05:02:08;14.20;;;8.88;;
37873;SDS011;23709;48.078;11.684;2023-04-27T05:04:40;15.85;;;8.88;;
37873;SDS011;23709;48.078;11.684;2023-04-27T05:07:13;10.77;;;7.90;;
37873;SDS011;23709;48.078;11.684;2023-04-27T05:09:49;13.32;;;7.60;;
37873;SDS011;23709;48.078;11.684;2023-04-27T05:12:21;13.73;;;8.02;;
37873;SDS011;23709;48.078;11.684;2023-04-27T05:14:53;14.05;;;8.38;;
37873;SDS011;23709;48.078;11.684;2023-04-27T05:17:25;13.38;;;8.30;;
37873;SDS011;23709;48.078;11.684;2023-04-27T05:19:58;16.73;;;9.27;;
37873;SDS011;23709;48.078;11.684;2023-04-27T05:22:30;12.00;;;8.52;;
37873;SDS011;23709;48.078;11.684;2023-04-27T05:25:03;14.82;;;8.98;;
37873;SDS011;23709;48.078;11.684;2023-04-27T05:27:35;14.77;;;9.35;;
37873;SDS011;23709;48.078;11.684;2023-04-27T05:30:08;17.40;;;9.68;;
37873;SDS011;23709;48.078;11.684;2023-04-27T05:32:42;18.45;;;8.60;;
37873;SDS011;23709;48.078;11.684;2023-04-27T05:35:14;14.90;;;9.57;;
37873;SDS011;23709;48.078;11.684;2023-04-27T05:37:46;20.08;;;9.73;;
37873;SDS011;23709;48.078;11.684;2023-04-27T05:40:19;16.35;;;10.23;;
37873;SDS011;23709;48.078;11.684;2023-04-27T05:42:51;18.38;;;10.02;;
37873;SDS011;23709;48.078;11.684;2023-04-27T05:45:23;19.15;;;10.70;;
37873;SDS011;23709;48.078;11.684;2023-04-27T05:47:55;17.00;;;10.48;;
37873;SDS011;23709;48.078;11.684;2023-04-27T05:50:27;30.40;;;11.27;;
37873;SDS011;23709;48.078;11.684;2023-04-27T05:53:00;16.25;;;9.27;;
37873;SDS011;23709;48.078;11.684;2023-04-27T05:55:32;21.25;;;10.40;;
37873;SDS011;23709;48.078;11.684;2023-04-27T05:58:04;14.70;;;10.02;;
37873;SDS011;23709;48.078;11.684;2023-04-27T06:00:39;17.75;;;9.88;;
37873;SDS011;23709;48.078;11.684;2023-04-27T06:03:12;15.27;;;9.93;;
37873;SDS011;23709;48.078;11.684;2023-04-27T06:05:44;18.27;;;10.23;;
37873;SDS011;23709;48.078;11.684;2023-04-27T06:08:17;18.42;;;9.98;;
37873;SDS011;23709;48.078;11.684;2023-04-27T06:10:49;23.02;;;9.07;;
37873;SDS011;23709;48.078;11.684;2023-04-27T06:13:22;16.65;;;8.70;;
37873;SDS011;23709;48.078;11.684;2023-04-27T06:15:54;18.25;;;9.95;;
37873;SDS011;23709;48.078;11.684;2023-04-27T06:18:27;18.08;;;9.20;;
37873;SDS011;23709;48.078;11.684;2023-04-27T06:20:59;14.18;;;8.38;;
37873;SDS011;23709;48.078;11.684;2023-04-27T06:23:32;18.70;;;8.85;;
37873;SDS011;23709;48.078;11.684;2023-04-27T06:26:04;20.50;;;9.25;;
37873;SDS011;23709;48.078;11.684;2023-04-27T06:28:37;17.17;;;9.02;;
37873;SDS011;23709;48.078;11.684;2023-04-27T06:31:09;17.15;;;8.98;;
37873;SDS011;23709;48.078;11.684;2023-04-27T06:33:42;13.15;;;9.30;;
37873;SDS011;23709;48.078;11.684;2023-04-27T06:36:14;13.33;;;8.40;;
37873;SDS011;23709;48.078;11.684;2023-04-27T06:38:47;17.25;;;8.73;;
37873;SDS011;23709;48.078;11.684;2023-04-27T06:41:19;22.88;;;8.90;;
37873;SDS011;23709;48.078;11.684;2023-04-27T06:43:52;19.48;;;9.25;;
37873;SDS011;23709;48.078;11.684;2023-04-27T06:46:27;18.52;;;9.05;;
37873;SDS011;23709;48.078;11.684;2023-04-27T06:48:59;18.40;;;8.68;;
37873;SDS011;23709;48.078;11.684;2023-04-27T06:51:32;16.88;;;8.98;;
37873;SDS011;23709;48.078;11.684;2023-04-27T06:54:04;15.43;;;8.73;;
37873;SDS011;23709;48.078;11.684;2023-04-27T06:56:36;19.52;;;8.52;;
37873;SDS011;23709;48.078;11.684;2023-04-27T06:59:09;18.58;;;8.43;;
37873;SDS011;23709;48.078;11.684;2023-04-27T07:01:42;19.63;;;8.43;;
37873;SDS011;23709;48.078;11.684;2023-04-27T07:04:14;10.73;;;7.47;;
37873;SDS011;23709;48.078;11.684;2023-04-27T07:06:47;20.42;;;9.02;;
37873;SDS011;23709;48.078;11.684;2023-04-27T07:09:19;16.52;;;8.55;;
37873;SDS011;23709;48.078;11.684;2023-04-27T07:11:56;15.40;;;8.38;;
37873;SDS011;23709;48.078;11.684;2023-04-27T07:14:29;19.95;;;9.60;;
37873;SDS011;23709;48.078;11.684;2023-04-27T07:17:02;20.40;;;8.63;;
37873;SDS011;23709;48.078;11.684;2023-04-27T07:19:35;17.48;;;8.15;;
37873;SDS011;23709;48.078;11.684;2023-04-27T07:22:07;15.65;;;9.07;;
37873;SDS011;23709;48.078;11.684;2023-04-27T07:24:40;16.20;;;8.63;;
37873;SDS011;23709;48.078;11.684;2023-04-27T07:27:12;13.35;;;8.65;;
37873;SDS011;23709;48.078;11.684;2023-04-27T07:29:46;15.07;;;9.40;;
37873;SDS011;23709;48.078;11.684;2023-04-27T07:34:55;13.40;;;8.52;;
37873;SDS011;23709;48.078;11.684;2023-04-27T07:37:28;19.25;;;9.00;;
37873;SDS011;23709;48.078;11.684;2023-04-27T07:40:00;18.58;;;9.77;;
37873;SDS011;23709;48.078;11.684;2023-04-27T07:42:36;18.35;;;9.43;;
37873;SDS011;23709;48.078;11.684;2023-04-27T07:45:10;13.98;;;9.05;;
37873;SDS011;23709;48.078;11.684;2023-04-27T07:47:42;14.63;;;9.13;;
37873;SDS011;23709;48.078;11.684;2023-04-27T07:50:15;16.90;;;9.32;;
37873;SDS011;23709;48.078;11.684;2023-04-27T07:52:48;16.23;;;8.30;;
37873;SDS011;23709;48.078;11.684;2023-04-27T07:55:20;12.73;;;8.57;;
37873;SDS011;23709;48.078;11.684;2023-04-27T07:57:55;14.38;;;8.73;;
37873;SDS011;23709;48.078;11.684;2023-04-27T08:00:27;16.00;;;8.60;;
37873;SDS011;23709;48.078;11.684;2023-04-27T08:03:00;15.75;;;8.40;;
37873;SDS011;23709;48.078;11.684;2023-04-27T08:05:33;14.57;;;8.45;;
37873;SDS011;23709;48.078;11.684;2023-04-27T08:08:05;18.20;;;9.57;;
37873;SDS011;23709;48.078;11.684;2023-04-27T08:10:38;21.70;;;9.27;;
37873;SDS011;23709;48.078;11.684;2023-04-27T08:13:10;15.25;;;9.45;;
37873;SDS011;23709;48.078;11.684;2023-04-27T08:15:43;21.67;;;8.77;;
37873;SDS011;23709;48.078;11.684;2023-04-27T08:18:15;15.55;;;9.15;;
37873;SDS011;23709;48.078;11.684;2023-04-27T08:20:48;16.58;;;8.50;;
37873;SDS011;23709;48.078;11.684;2023-04-27T08:23:20;16.65;;;8.73;;
37873;SDS011;23709;48.078;11.684;2023-04-27T08:25:52;17.83;;;8.95;;
37873;SDS011;23709;48.078;11.684;2023-04-27T08:28:25;14.63;;;8.57;;
37873;SDS011;23709;48.078;11.684;2023-04-27T08:30:57;13.50;;;7.80;;
37873;SDS011;23709;48.078;11.684;2023-04-27T08:33:30;16.42;;;9.10;;
37873;SDS011;23709;48.078;11.684;2023-04-27T08:36:02;21.08;;;9.02;;
37873;SDS011;23709;48.078;11.684;2023-04-27T08:38:35;20.90;;;9.25;;
37873;SDS011;23709;48.078;11.684;2023-04-27T08:41:07;14.93;;;8.13;;
37873;SDS011;23709;48.078;11.684;2023-04-27T08:43:54;18.17;;;8.63;;
37873;SDS011;23709;48.078;11.684;2023-04-27T08:46:29;16.73;;;8.00;;
37873;SDS011;23709;48.078;11.684;2023-04-27T08:49:02;11.13;;;7.20;;
37873;SDS011;23709;48.078;11.684;2023-04-27T08:51:34;12.05;;;7.85;;
37873;SDS011;23709;48.078;11.684;2023-04-27T08:54:07;18.20;;;8.30;;
37873;SDS011;23709;48.078;11.684;2023-04-27T08:56:39;11.23;;;7.65;;
37873;SDS011;23709;48.078;11.684;2023-04-27T08:59:12;11.25;;;7.63;;
37873;SDS011;23709;48.078;11.684;2023-04-27T09:01:47;13.18;;;7.50;;
37873;SDS011;23709;48.078;11.684;2023-04-27T09:04:20;16.60;;;8.32;;
37873;SDS011;23709;48.078;11.684;2023-04-27T09:06:53;13.73;;;8.20;;
37873;SDS011;23709;48.078;11.684;2023-04-27T09:09:26;14.55;;;8.10;;
37873;SDS011;23709;48.078;11.684;2023-04-27T09:11:59;14.23;;;7.68;;
37873;SDS011;23709;48.078;11.684;2023-04-27T09:14:31;16.20;;;8.00;;
37873;SDS011;23709;48.078;11.684;2023-04-27T09:17:07;12.73;;;7.22;;
37873;SDS011;23709;48.078;11.684;2023-04-27T09:19:39;15.43;;;7.20;;
37873;SDS011;23709;48.078;11.684;2023-04-27T09:22:12;15.90;;;7.22;;
37873;SDS011;23709;48.078;11.684;2023-04-27T09:24:49;12.18;;;6.60;;
37873;SDS011;23709;48.078;11.684;2023-04-27T09:27:22;16.08;;;6.28;;
37873;SDS011;23709;48.078;11.684;2023-04-27T09:29:55;12.05;;;6.53;;
37873;SDS011;23709;48.078;11.684;2023-04-27T09:32:27;11.13;;;6.32;;
37873;SDS011;23709;48.078;11.684;2023-04-27T09:34:59;13.10;;;7.30;;
37873;SDS011;23709;48.078;11.684;2023-04-27T09:37:31;11.70;;;6.65;;
37873;SDS011;23709;48.078;11.684;2023-04-27T09:40:04;12.73;;;6.03;;
37873;SDS011;23709;48.078;11.684;2023-04-27T09:42:37;9.20;;;4.70;;
37873;SDS011;23709;48.078;11.684;2023-04-27T09:45:10;9.25;;;4.78;;
37873;SDS011;23709;48.078;11.684;2023-04-27T09:47:43;10.40;;;5.22;;
37873;SDS011;23709;48.078;11.684;2023-04-27T09:50:16;9.98;;;4.82;;
37873;SDS011;23709;48.078;11.684;2023-04-27T09:52:48;9.13;;;4.60;;
37873;SDS011;23709;48.078;11.684;2023-04-27T09:55:42;9.43;;;4.40;;
37873;SDS011;23709;48.078;11.684;2023-04-27T10:01:44;7.88;;;5.30;;
37873;SDS011;23709;48.078;11.684;2023-04-27T10:07:11;14.70;;;5.80;;
37873;SDS011;23709;48.078;11.684;2023-04-27T10:09:46;10.40;;;5.50;;
37873;SDS011;23709;48.078;11.684;2023-04-27T10:15:16;8.77;;;5.88;;
37873;SDS011;23709;48.078;11.684;2023-04-27T10:17:49;10.52;;;5.97;;
37873;SDS011;23709;48.078;11.684;2023-04-27T10:20:27;12.15;;;5.68;;
37873;SDS011;23709;48.078;11.684;2023-04-27T10:23:02;9.00;;;6.25;;
37873;SDS011;23709;48.078;11.684;2023-04-27T10:25:38;10.07;;;5.47;;
37873;SDS011;23709;48.078;11.684;2023-04-27T10:28:15;9.02;;;5.57;;
37873;SDS011;23709;48.078;11.684;2023-04-27T10:30:51;6.80;;;4.82;;
37873;SDS011;23709;48.078;11.684;2023-04-27T10:33:24;10.18;;;5.40;;
37873;SDS011;23709;48.078;11.684;2023-04-27T10:35:56;10.90;;;5.78;;
37873;SDS011;23709;48.078;11.684;2023-04-27T10:38:31;10.80;;;5.63;;
37873;SDS011;23709;48.078;11.684;2023-04-27T10:41:04;13.77;;;6.03;;
37873;SDS011;23709;48.078;11.684;2023-04-27T10:43:43;11.40;;;4.70;;
37873;SDS011;23709;48.078;11.684;2023-04-27T10:46:16;11.30;;;5.57;;
37873;SDS011;23709;48.078;11.684;2023-04-27T10:48:49;8.32;;;4.72;;
37873;SDS011;23709;48.078;11.684;2023-04-27T10:51:22;10.73;;;5.35;;
37873;SDS011;23709;48.078;11.684;2023-04-27T10:53:57;13.65;;;5.60;;
37873;SDS011;23709;48.078;11.684;2023-04-27T10:59:04;9.68;;;5.50;;
37873;SDS011;23709;48.078;11.684;2023-04-27T11:01:36;8.23;;;4.95;;
37873;SDS011;23709;48.078;11.684;2023-04-27T11:04:08;12.02;;;5.25;;
37873;SDS011;23709;48.078;11.684;2023-04-27T11:06:44;9.45;;;5.05;;
37873;SDS011;23709;48.078;11.684;2023-04-27T11:09:26;9.13;;;5.30;;
37873;SDS011;23709;48.078;11.684;2023-04-27T11:11:58;9.52;;;5.10;;
37873;SDS011;23709;48.078;11.684;2023-04-27T11:14:31;7.75;;;4.90;;
37873;SDS011;23709;48.078;11.684;2023-04-27T11:17:05;11.65;;;4.88;;
37873;SDS011;23709;48.078;11.684;2023-04-27T11:19:44;6.57;;;3.97;;
37873;SDS011;23709;48.078;11.684;2023-04-27T11:22:20;12.57;;;4.28;;
37873;SDS011;23709;48.078;11.684;2023-04-27T11:24:52;9.55;;;4.25;;
37873;SDS011;23709;48.078;11.684;2023-04-27T11:27:34;8.18;;;4.10;;
37873;SDS011;23709;48.078;11.684;2023-04-27T11:30:17;7.55;;;4.22;;
37873;SDS011;23709;48.078;11.684;2023-04-27T11:35:31;6.97;;;3.90;;
37873;SDS011;23709;48.078;11.684;2023-04-27T11:38:06;6.05;;;4.07;;
37873;SDS011;23709;48.078;11.684;2023-04-27T11:40:45;4.75;;;2.97;;
37873;SDS011;23709;48.078;11.684;2023-04-27T11:43:29;6.80;;;3.45;;
37873;SDS011;23709;48.078;11.684;2023-04-27T11:46:02;4.93;;;3.20;;
37873;SDS011;23709;48.078;11.684;2023-04-27T11:48:37;8.93;;;4.15;;
37873;SDS011;23709;48.078;11.684;2023-04-27T11:51:10;7.28;;;3.58;;
37873;SDS011;23709;48.078;11.684;2023-04-27T11:56:18;10.43;;;4.03;;
37873;SDS011;23709;48.078;11.684;2023-04-27T11:58:50;4.93;;;3.35;;
37873;SDS011;23709;48.078;11.684;2023-04-27T12:01:23;4.95;;;3.70;;
37873;SDS011;23709;48.078;11.684;2023-04-27T12:04:08;12.32;;;3.40;;
37873;SDS011;23709;48.078;11.684;2023-04-27T12:06:41;8.23;;;2.92;;
37873;SDS011;23709;48.078;11.684;2023-04-27T12:09:14;6.33;;;2.93;;
37873;SDS011;23709;48.078;11.684;2023-04-27T12:11:47;5.85;;;3.95;;
37873;SDS011;23709;48.078;11.684;2023-04-27T12:14:20;5.63;;;3.42;;
37873;SDS011;23709;48.078;11.684;2023-04-27T12:16:52;4.80;;;2.75;;
37873;SDS011;23709;48.078;11.684;2023-04-27T12:19:24;7.05;;;3.30;;
37873;SDS011;23709;48.078;11.684;2023-04-27T12:21:56;7.70;;;3.65;;
37873;SDS011;23709;48.078;11.684;2023-04-27T12:24:29;6.97;;;3.80;;
37873;SDS011;23709;48.078;11.684;2023-04-27T12:27:02;6.93;;;3.40;;
37873;SDS011;23709;48.078;11.684;2023-04-27T12:29:35;6.95;;;3.17;;
37873;SDS011;23709;48.078;11.684;2023-04-27T12:32:08;6.00;;;3.00;;
37873;SDS011;23709;48.078;11.684;2023-04-27T12:34:41;5.82;;;3.72;;
37873;SDS011;23709;48.078;11.684;2023-04-27T12:37:13;6.18;;;3.70;;
37873;SDS011;23709;48.078;11.684;2023-04-27T12:39:45;5.70;;;3.20;;
37873;SDS011;23709;48.078;11.684;2023-04-27T12:42:18;9.20;;;3.30;;
37873;SDS011;23709;48.078;11.684;2023-04-27T12:44:54;7.00;;;3.05;;
37873;SDS011;23709;48.078;11.684;2023-04-27T12:47:27;5.32;;;3.00;;
37873;SDS011;23709;48.078;11.684;2023-04-27T12:50:19;7.68;;;3.95;;
37873;SDS011;23709;48.078;11.684;2023-04-27T12:52:51;7.88;;;3.78;;
37873;SDS011;23709;48.078;11.684;2023-04-27T12:55:24;5.10;;;3.33;;
37873;SDS011;23709;48.078;11.684;2023-04-27T12:58:04;5.88;;;3.55;;
37873;SDS011;23709;48.078;11.684;2023-04-27T13:00:37;6.50;;;3.63;;
37873;SDS011;23709;48.078;11.684;2023-04-27T13:03:09;7.57;;;3.42;;
37873;SDS011;23709;48.078;11.684;2023-04-27T13:05:41;8.40;;;3.72;;
37873;SDS011;23709;48.078;11.684;2023-04-27T13:08:17;9.63;;;3.35;;
37873;SDS011;23709;48.078;11.684;2023-04-27T13:10:50;6.53;;;3.33;;
37873;SDS011;23709;48.078;11.684;2023-04-27T13:13:24;4.75;;;2.90;;
37873;SDS011;23709;48.078;11.684;2023-04-27T13:15:56;3.92;;;2.95;;
37873;SDS011;23709;48.078;11.684;2023-04-27T13:18:29;6.63;;;2.90;;
37873;SDS011;23709;48.078;11.684;2023-04-27T13:21:06;4.32;;;2.83;;
37873;SDS011;23709;48.078;11.684;2023-04-27T13:23:38;6.47;;;3.58;;
37873;SDS011;23709;48.078;11.684;2023-04-27T13:26:11;7.40;;;3.83;;
37873;SDS011;23709;48.078;11.684;2023-04-27T13:28:43;8.40;;;3.40;;
37873;SDS011;23709;48.078;11.684;2023-04-27T13:31:16;8.60;;;3.20;;
37873;SDS011;23709;48.078;11.684;2023-04-27T13:33:49;13.32;;;3.22;;
37873;SDS011;23709;48.078;11.684;2023-04-27T13:36:21;5.30;;;2.90;;
37873;SDS011;23709;48.078;11.684;2023-04-27T13:38:53;7.30;;;2.95;;
37873;SDS011;23709;48.078;11.684;2023-04-27T13:41:26;5.57;;;3.33;;
37873;SDS011;23709;48.078;11.684;2023-04-27T13:43:58;9.13;;;3.73;;
37873;SDS011;23709;48.078;11.684;2023-04-27T13:46:31;7.47;;;3.95;;
37873;SDS011;23709;48.078;11.684;2023-04-27T13:49:03;7.97;;;3.17;;
37873;SDS011;23709;48.078;11.684;2023-04-27T13:51:35;8.23;;;4.25;;
37873;SDS011;23709;48.078;11.684;2023-04-27T13:54:07;16.67;;;4.65;;
37873;SDS011;23709;48.078;11.684;2023-04-27T13:56:39;8.27;;;4.30;;
37873;SDS011;23709;48.078;11.684;2023-04-27T13:59:12;11.90;;;4.35;;
37873;SDS011;23709;48.078;11.684;2023-04-27T14:01:45;5.97;;;4.28;;
37873;SDS011;23709;48.078;11.684;2023-04-27T14:04:17;7.75;;;3.60;;
37873;SDS011;23709;48.078;11.684;2023-04-27T14:06:50;6.07;;;3.50;;
37873;SDS011;23709;48.078;11.684;2023-04-27T14:09:22;5.75;;;2.97;;
37873;SDS011;23709;48.078;11.684;2023-04-27T14:11:57;6.15;;;3.10;;
37873;SDS011;23709;48.078;11.684;2023-04-27T14:17:03;7.50;;;3.50;;
37873;SDS011;23709;48.078;11.684;2023-04-27T14:19:36;5.82;;;2.85;;
37873;SDS011;23709;48.078;11.684;2023-04-27T14:22:09;5.18;;;3.28;;
37873;SDS011;23709;48.078;11.684;2023-04-27T14:24:41;7.30;;;3.67;;
37873;SDS011;23709;48.078;11.684;2023-04-27T14:27:14;6.80;;;2.95;;
37873;SDS011;23709;48.078;11.684;2023-04-27T14:29:47;6.72;;;3.13;;
37873;SDS011;23709;48.078;11.684;2023-04-27T14:32:19;6.25;;;3.30;;
37873;SDS011;23709;48.078;11.684;2023-04-27T14:34:53;3.20;;;2.60;;
37873;SDS011;23709;48.078;11.684;2023-04-27T14:37:25;6.18;;;3.58;;
37873;SDS011;23709;48.078;11.684;2023-04-27T14:39:57;5.85;;;3.20;;
37873;SDS011;23709;48.078;11.684;2023-04-27T14:42:30;5.93;;;3.40;;
37873;SDS011;23709;48.078;11.684;2023-04-27T14:45:03;5.35;;;3.03;;
37873;SDS011;23709;48.078;11.684;2023-04-27T14:47:35;5.90;;;3.28;;
37873;SDS011;23709;48.078;11.684;2023-04-27T14:50:08;5.28;;;3.08;;
37873;SDS011;23709;48.078;11.684;2023-04-27T14:52:42;5.93;;;3.00;;
37873;SDS011;23709;48.078;11.684;2023-04-27T14:55:14;5.07;;;2.85;;
37873;SDS011;23709;48.078;11.684;2023-04-27T14:57:49;5.72;;;3.20;;
37873;SDS011;23709;48.078;11.684;2023-04-27T15:00:21;8.02;;;3.33;;
37873;SDS011;23709;48.078;11.684;2023-04-27T15:02:54;4.28;;;3.30;;
37873;SDS011;23709;48.078;11.684;2023-04-27T15:05:26;6.35;;;2.95;;
37873;SDS011;23709;48.078;11.684;2023-04-27T15:07:58;8.32;;;2.80;;
37873;SDS011;23709;48.078;11.684;2023-04-27T15:10:32;6.20;;;3.15;;
37873;SDS011;23709;48.078;11.684;2023-04-27T15:13:04;5.03;;;2.95;;
37873;SDS011;23709;48.078;11.684;2023-04-27T15:15:37;7.47;;;3.40;;
37873;SDS011;23709;48.078;11.684;2023-04-27T15:18:10;4.75;;;2.60;;
37873;SDS011;23709;48.078;11.684;2023-04-27T15:20:42;6.15;;;2.50;;
37873;SDS011;23709;48.078;11.684;2023-04-27T15:23:15;4.63;;;2.90;;
37873;SDS011;23709;48.078;11.684;2023-04-27T15:25:53;5.57;;;3.13;;